createdAt,value
2018-04-18T00:00:31.944Z,7.67
2018-04-18T00:03:02.750Z,6.93
2018-04-18T00:05:30.752Z,7.77
2018-04-18T00:07:58.854Z,7.70
2018-04-18T00:10:27.726Z,8.17
2018-04-18T00:12:55.811Z,7.60
2018-04-18T00:15:23.952Z,8.53
2018-04-18T00:17:52.032Z,8.60
2018-04-18T00:20:20.104Z,8.57
2018-04-18T00:22:48.248Z,9.10
2018-04-18T00:25:16.345Z,9.07
2018-04-18T00:27:44.500Z,8.23
2018-04-18T00:30:12.591Z,8.50
2018-04-18T00:32:40.708Z,9.13
2018-04-18T00:35:08.865Z,8.77
2018-04-18T00:37:36.975Z,8.47
2018-04-18T00:40:05.068Z,8.50
2018-04-18T00:42:33.981Z,8.70
2018-04-18T00:45:02.852Z,8.80
2018-04-18T00:47:30.979Z,8.33
2018-04-18T00:49:59.139Z,8.00
2018-04-18T00:52:27.225Z,8.47
2018-04-18T00:54:55.385Z,8.50
2018-04-18T00:57:23.525Z,8.13
2018-04-18T00:59:51.627Z,8.57
2018-04-18T01:02:19.746Z,8.83
2018-04-18T01:04:47.873Z,9.50
2018-04-18T01:07:16.550Z,8.80
2018-04-18T01:09:44.644Z,8.87
2018-04-18T01:12:13.525Z,9.30
2018-04-18T01:14:41.643Z,9.27
2018-04-18T01:17:10.528Z,9.00
2018-04-18T01:19:38.611Z,10.20
2018-04-18T01:22:06.732Z,9.23
2018-04-18T01:24:34.826Z,9.07
2018-04-18T01:27:02.934Z,9.90
2018-04-18T01:29:31.047Z,10.50
2018-04-18T01:31:59.133Z,9.90
2018-04-18T01:34:27.237Z,9.70
2018-04-18T01:36:56.102Z,9.97
2018-04-18T01:39:24.235Z,9.03
2018-04-18T01:41:52.352Z,10.50
2018-04-18T01:44:20.431Z,10.37
2018-04-18T01:46:48.540Z,10.37
2018-04-18T01:49:23.432Z,10.17
2018-04-18T01:51:51.563Z,9.40
2018-04-18T01:54:19.663Z,9.60
2018-04-18T01:56:47.779Z,10.23
2018-04-18T01:59:16.667Z,9.80
2018-04-18T02:01:44.784Z,9.83
2018-04-18T02:04:12.933Z,9.37
2018-04-18T02:06:41.020Z,9.07
2018-04-18T02:09:09.103Z,9.60
2018-04-18T02:11:37.205Z,10.37
2018-04-18T02:14:06.064Z,10.50
2018-04-18T02:16:34.240Z,10.37
2018-04-18T02:19:02.368Z,10.37
2018-04-18T02:21:30.459Z,9.13
2018-04-18T02:23:59.326Z,10.17
2018-04-18T02:26:27.424Z,10.10
2018-04-18T02:28:55.575Z,10.23
2018-04-18T02:31:23.669Z,10.43
2018-04-18T02:33:51.799Z,10.83
2018-04-18T02:36:19.904Z,9.97
2018-04-18T02:38:48.072Z,10.00
2018-04-18T02:41:16.184Z,11.20
2018-04-18T02:43:44.313Z,11.20
2018-04-18T02:46:12.420Z,10.97
2018-04-18T02:48:40.508Z,10.57
2018-04-18T02:51:09.400Z,11.53
2018-04-18T02:53:37.503Z,9.50
2018-04-18T02:56:06.393Z,10.40
2018-04-18T02:58:34.500Z,12.17
2018-04-18T03:01:02.600Z,11.20
2018-04-18T03:03:30.731Z,10.73
2018-04-18T03:05:58.841Z,11.30
2018-04-18T03:08:27.707Z,9.73
2018-04-18T03:10:55.799Z,11.83
2018-04-18T03:13:23.896Z,12.37
2018-04-18T03:15:52.034Z,11.97
2018-04-18T03:18:20.112Z,11.17
2018-04-18T03:20:48.271Z,11.00
2018-04-18T03:23:17.123Z,10.83
2018-04-18T03:25:45.197Z,11.20
2018-04-18T03:28:13.309Z,11.37
2018-04-18T03:30:41.439Z,11.07
2018-04-18T03:33:10.302Z,11.17
2018-04-18T03:35:38.465Z,11.50
2018-04-18T03:38:06.610Z,10.97
2018-04-18T03:40:34.696Z,10.83
2018-04-18T03:43:03.562Z,11.73
2018-04-18T03:45:31.696Z,10.80
2018-04-18T03:47:59.852Z,15.23
2018-04-18T03:50:27.990Z,14.63
2018-04-18T03:52:56.084Z,13.43
2018-04-18T03:55:24.187Z,14.30
2018-04-18T03:57:52.309Z,12.27
2018-04-18T04:00:20.395Z,11.03
2018-04-18T04:02:49.252Z,11.93
2018-04-18T04:05:17.375Z,12.67
2018-04-18T04:07:45.467Z,11.97
2018-04-18T04:10:14.368Z,14.00
2018-04-18T04:12:43.281Z,14.93
2018-04-18T04:15:11.412Z,16.47
2018-04-18T04:20:51.769Z,12.70
2018-04-18T04:23:31.697Z,14.27
2018-04-18T04:25:59.748Z,13.80
2018-04-18T04:28:27.848Z,12.77
2018-04-18T04:30:56.053Z,14.87
2018-04-18T04:33:24.142Z,18.57
2018-04-18T04:35:53.088Z,16.03
2018-04-18T04:38:21.203Z,14.93
2018-04-18T04:40:49.308Z,15.00
2018-04-18T04:43:17.454Z,13.57
2018-04-18T04:45:45.608Z,13.87
2018-04-18T04:48:14.492Z,12.47
2018-04-18T04:50:44.149Z,12.73
2018-04-18T04:53:13.000Z,12.10
2018-04-18T04:55:41.108Z,16.70
2018-04-18T04:58:09.214Z,15.03
2018-04-18T05:00:38.103Z,10.20
2018-04-18T05:03:06.276Z,11.03
2018-04-18T05:05:34.372Z,11.03
2018-04-18T05:08:03.246Z,8.67
2018-04-18T05:10:31.407Z,9.40
2018-04-18T05:12:59.540Z,10.47
2018-04-18T05:15:27.649Z,8.37
2018-04-18T05:17:56.543Z,7.80
2018-04-18T05:20:25.451Z,6.93
2018-04-18T05:22:55.220Z,8.47
2018-04-18T05:25:23.304Z,8.80
2018-04-18T05:27:51.445Z,8.20
2018-04-18T05:30:20.296Z,7.90
2018-04-18T05:32:48.411Z,7.07
2018-04-18T05:35:16.526Z,6.63
2018-04-18T05:37:44.655Z,7.73
2018-04-18T05:40:12.772Z,7.00
2018-04-18T05:42:40.908Z,6.90
2018-04-18T05:45:09.031Z,6.60
2018-04-18T05:47:37.101Z,7.20
2018-04-18T05:50:05.206Z,6.33
2018-04-18T05:52:33.355Z,6.90
2018-04-18T05:55:01.477Z,7.37
2018-04-18T05:57:29.610Z,7.23
2018-04-18T05:59:57.743Z,7.43
2018-04-18T06:02:25.859Z,6.87
2018-04-18T06:04:54.773Z,6.70
2018-04-18T06:07:22.917Z,6.83
2018-04-18T06:09:51.062Z,6.43
2018-04-18T06:12:19.191Z,6.73
2018-04-18T06:14:47.345Z,6.97
2018-04-18T06:17:15.425Z,6.40
2018-04-18T06:19:44.405Z,7.27
2018-04-18T06:22:13.322Z,7.30
2018-04-18T06:24:41.417Z,6.87
2018-04-18T06:27:09.522Z,7.10
2018-04-18T06:29:37.639Z,7.10
2018-04-18T06:32:06.486Z,7.43
2018-04-18T06:34:34.670Z,7.77
2018-04-18T06:37:02.775Z,7.73
2018-04-18T06:39:30.883Z,8.70
2018-04-18T06:41:58.954Z,9.17
2018-04-18T06:44:27.117Z,8.80
2018-04-18T06:46:55.215Z,7.50
2018-04-18T06:49:23.368Z,7.03
2018-04-18T06:51:51.526Z,6.87
2018-04-18T06:54:19.624Z,7.53
2018-04-18T06:56:48.450Z,7.82
2018-04-18T06:59:16.527Z,7.60
2018-04-18T07:01:44.692Z,9.50
2018-04-18T07:04:13.606Z,9.45
2018-04-18T07:06:41.671Z,9.10
2018-04-18T07:09:10.593Z,10.27
2018-04-18T07:11:39.459Z,9.18
2018-04-18T07:14:07.538Z,9.50
2018-04-18T07:16:35.648Z,10.45
2018-04-18T07:19:04.524Z,11.30
2018-04-18T07:21:32.618Z,11.18
2018-04-18T07:24:00.713Z,10.10
2018-04-18T07:26:29.584Z,10.07
2018-04-18T07:28:57.688Z,10.43
2018-04-18T07:31:25.831Z,10.02
2018-04-18T07:33:53.935Z,11.95
2018-04-18T07:36:22.064Z,11.10
2018-04-18T07:38:50.938Z,12.25
2018-04-18T07:41:19.064Z,11.73
2018-04-18T07:43:47.945Z,11.65
2018-04-18T07:46:16.051Z,11.02
2018-04-18T07:48:44.929Z,12.30
2018-04-18T07:51:13.087Z,11.98
2018-04-18T07:53:41.205Z,12.15
2018-04-18T07:56:09.342Z,13.20
2018-04-18T07:58:37.449Z,12.07
2018-04-18T08:01:05.556Z,14.15
2018-04-18T08:03:33.705Z,12.20
2018-04-18T08:06:01.790Z,13.90
2018-04-18T08:08:29.894Z,13.35
2018-04-18T08:10:58.034Z,13.15
2018-04-18T08:13:26.126Z,14.90
2018-04-18T08:15:54.264Z,13.62
2018-04-18T08:18:22.367Z,13.40
2018-04-18T08:20:51.252Z,12.77
2018-04-18T08:23:20.121Z,12.90
2018-04-18T08:25:48.244Z,13.30
2018-04-18T08:28:16.329Z,14.43
2018-04-18T08:30:44.427Z,13.57
2018-04-18T08:33:12.533Z,12.98
2018-04-18T08:35:48.052Z,12.10
2018-04-18T08:38:16.211Z,12.45
2018-04-18T08:40:44.328Z,12.60
2018-04-18T08:43:12.438Z,12.70
2018-04-18T08:45:41.307Z,12.43
2018-04-18T08:48:09.406Z,11.63
2018-04-18T08:50:37.488Z,12.55
2018-04-18T08:53:05.612Z,12.73
2018-04-18T08:55:33.726Z,12.65
2018-04-18T08:58:01.846Z,11.80
2018-04-18T09:00:29.945Z,11.68
2018-04-18T09:02:58.866Z,11.82
2018-04-18T09:05:26.995Z,9.95
2018-04-18T09:07:55.087Z,9.65
2018-04-18T09:10:23.155Z,9.65
2018-04-18T09:12:51.227Z,9.43
2018-04-18T09:15:19.336Z,10.15
2018-04-18T09:17:47.495Z,8.88
2018-04-18T09:20:15.575Z,9.23
2018-04-18T09:22:43.675Z,10.30
2018-04-18T09:25:11.770Z,9.15
2018-04-18T09:27:39.938Z,10.07
2018-04-18T09:30:08.034Z,8.95
2018-04-18T09:32:36.110Z,9.10
2018-04-18T09:35:04.210Z,9.30
2018-04-18T09:37:32.319Z,9.70
2018-04-18T09:40:00.431Z,8.65
2018-04-18T09:42:29.296Z,9.32
2018-04-18T09:44:57.375Z,8.65
2018-04-18T09:47:26.583Z,7.85
2018-04-18T09:49:54.668Z,9.27
2018-04-18T09:52:22.769Z,10.65
2018-04-18T09:54:51.655Z,9.65
2018-04-18T09:57:19.733Z,8.80
2018-04-18T09:59:47.833Z,9.40
2018-04-18T10:02:17.934Z,8.35
2018-04-18T10:04:46.029Z,8.80
2018-04-18T10:07:14.169Z,8.48
2018-04-18T10:09:43.061Z,8.80
2018-04-18T10:12:11.168Z,8.50
2018-04-18T10:14:40.031Z,8.38
2018-04-18T10:17:08.146Z,6.50
2018-04-18T10:19:37.013Z,5.63
2018-04-18T10:22:05.096Z,6.43
2018-04-18T10:24:33.197Z,6.80
2018-04-18T10:27:01.302Z,5.97
2018-04-18T10:29:29.392Z,6.93
2018-04-18T10:31:58.234Z,6.00
2018-04-18T10:34:27.077Z,6.43
2018-04-18T10:36:55.139Z,6.60
2018-04-18T10:39:23.268Z,6.10
2018-04-18T10:41:51.387Z,5.97
2018-04-18T10:44:19.463Z,6.70
2018-04-18T10:46:47.547Z,7.30
2018-04-18T10:49:15.616Z,6.13
2018-04-18T10:51:43.687Z,6.67
2018-04-18T10:54:12.546Z,6.30
2018-04-18T10:56:40.668Z,5.07
2018-04-18T10:59:09.579Z,5.27
2018-04-18T11:01:38.447Z,5.60
2018-04-18T11:04:06.603Z,5.57
2018-04-18T11:06:35.438Z,5.30
2018-04-18T11:09:03.602Z,7.63
2018-04-18T11:11:31.719Z,5.13
2018-04-18T11:13:59.843Z,5.67
2018-04-18T11:16:27.907Z,4.80
2018-04-18T11:18:56.763Z,5.40
2018-04-18T11:21:24.853Z,5.00
2018-04-18T11:23:52.920Z,4.10
2018-04-18T11:26:21.012Z,4.65
2018-04-18T11:28:49.099Z,5.50
2018-04-18T11:31:17.464Z,6.25
2018-04-18T11:33:46.295Z,5.45
2018-04-18T11:36:14.389Z,3.80
2018-04-18T11:38:42.490Z,4.28
2018-04-18T11:41:10.572Z,4.37
2018-04-18T11:43:38.651Z,4.70
2018-04-18T11:46:06.732Z,4.70
2018-04-18T11:48:34.846Z,6.28
2018-04-18T11:51:03.730Z,5.70
2018-04-18T11:53:31.830Z,6.05
2018-04-18T11:56:00.690Z,5.35
2018-04-18T11:58:28.791Z,5.03
2018-04-18T12:00:56.900Z,5.20
2018-04-18T12:03:24.980Z,5.62
2018-04-18T12:05:53.823Z,5.20
2018-04-18T12:08:21.929Z,5.85
2018-04-18T12:10:50.036Z,4.93
2018-04-18T12:13:18.103Z,4.80
2018-04-18T12:15:46.196Z,5.57
2018-04-18T12:18:14.287Z,6.62
2018-04-18T12:20:42.449Z,4.97
2018-04-18T12:23:11.288Z,4.87
2018-04-18T12:25:39.358Z,4.68
2018-04-18T12:28:07.440Z,4.82
2018-04-18T12:30:35.546Z,4.18
2018-04-18T12:33:03.612Z,3.90
2018-04-18T12:35:31.714Z,3.85
2018-04-18T12:37:59.806Z,4.40
2018-04-18T12:40:27.881Z,3.80
2018-04-18T12:42:56.004Z,3.80
2018-04-18T12:45:24.041Z,4.15
2018-04-18T12:47:52.113Z,4.07
2018-04-18T12:50:20.215Z,3.80
2018-04-18T12:52:48.364Z,3.30
2018-04-18T12:55:16.428Z,3.33
2018-04-18T12:57:44.538Z,2.97
2018-04-18T13:00:12.617Z,4.32
2018-04-18T13:02:40.682Z,4.00
2018-04-18T13:05:08.768Z,4.10
2018-04-18T13:07:36.947Z,3.90
2018-04-18T13:10:05.058Z,3.33
2018-04-18T13:12:33.151Z,4.07
2018-04-18T13:15:01.258Z,4.00
2018-04-18T13:17:29.367Z,3.72
2018-04-18T13:19:58.238Z,3.42
2018-04-18T13:22:26.391Z,3.75
2018-04-18T13:24:54.498Z,3.85
2018-04-18T13:27:22.593Z,3.33
2018-04-18T13:29:50.656Z,3.55
2018-04-18T13:32:18.801Z,3.40
2018-04-18T13:34:46.875Z,3.40
2018-04-18T13:37:15.766Z,3.60
2018-04-18T13:39:43.835Z,3.30
2018-04-18T13:42:11.937Z,3.20
2018-04-18T13:44:40.055Z,3.62
2018-04-18T13:47:08.138Z,3.92
2018-04-18T13:49:36.253Z,3.25
2018-04-18T13:52:04.381Z,3.58
2018-04-18T13:54:33.249Z,3.33
2018-04-18T13:57:01.344Z,3.40
2018-04-18T13:59:29.444Z,3.15
2018-04-18T14:01:57.528Z,3.12
2018-04-18T14:04:25.644Z,3.20
2018-04-18T14:06:54.501Z,3.65
2018-04-18T14:09:22.648Z,3.60
2018-04-18T14:11:50.747Z,3.37
2018-04-18T14:14:18.860Z,3.58
2018-04-18T14:16:46.967Z,3.20
2018-04-18T14:19:15.037Z,3.05
2018-04-18T14:21:43.156Z,3.28
2018-04-18T14:24:11.225Z,3.53
2018-04-18T14:26:40.096Z,3.80
2018-04-18T14:29:08.224Z,4.53
2018-04-18T14:31:37.077Z,3.72
2018-04-18T14:34:05.230Z,4.40
2018-04-18T14:36:33.340Z,5.62
2018-04-18T14:39:01.423Z,5.60
2018-04-18T14:41:29.522Z,5.68
2018-04-18T14:43:57.621Z,5.45
2018-04-18T14:46:25.712Z,7.12
2018-04-18T14:48:53.814Z,6.07
2018-04-18T14:51:21.903Z,6.53
2018-04-18T14:53:50.748Z,6.00
2018-04-18T14:56:18.853Z,6.13
2018-04-18T14:58:46.929Z,5.73
2018-04-18T15:01:15.034Z,5.43
2018-04-18T15:03:43.136Z,5.60
2018-04-18T15:06:11.999Z,5.50
2018-04-18T15:08:40.089Z,4.60
2018-04-18T15:11:08.188Z,5.10
2018-04-18T15:13:37.852Z,4.73
2018-04-18T15:16:06.674Z,4.73
2018-04-18T15:18:34.785Z,4.50
2018-04-18T15:21:02.910Z,4.17
2018-04-18T15:23:31.019Z,4.00
2018-04-18T15:25:59.175Z,3.70
2018-04-18T15:28:28.083Z,4.13
2018-04-18T15:30:56.219Z,4.90
2018-04-18T15:33:24.330Z,4.23
2018-04-18T15:35:52.434Z,3.70
2018-04-18T15:38:21.334Z,3.87
2018-04-18T15:40:49.430Z,4.07
2018-04-18T15:43:18.291Z,3.70
2018-04-18T15:45:46.451Z,3.73
2018-04-18T15:48:14.544Z,3.13
2018-04-18T15:50:42.672Z,3.70
2018-04-18T15:53:12.338Z,3.90
2018-04-18T15:55:40.427Z,3.73
2018-04-18T15:58:08.519Z,3.60
2018-04-18T16:00:36.689Z,3.30
2018-04-18T16:03:04.777Z,3.87
2018-04-18T16:05:32.935Z,3.70
2018-04-18T16:08:01.779Z,3.20
2018-04-18T16:10:29.853Z,3.70
2018-04-18T16:12:57.988Z,2.97
2018-04-18T16:15:26.135Z,3.87
2018-04-18T16:17:54.206Z,3.63
2018-04-18T16:20:22.300Z,3.47
2018-04-18T16:22:50.413Z,3.63
2018-04-18T16:25:18.529Z,3.67
2018-04-18T16:27:47.401Z,3.10
2018-04-18T16:30:27.239Z,3.43
2018-04-18T16:32:55.308Z,3.60
2018-04-18T16:35:23.408Z,3.47
2018-04-18T16:37:51.504Z,2.97
2018-04-18T16:40:19.608Z,3.17
2018-04-18T16:42:47.750Z,3.17
2018-04-18T16:45:15.844Z,3.20
2018-04-18T16:47:43.968Z,3.70
2018-04-18T16:50:12.083Z,3.67
2018-04-18T16:52:40.962Z,3.50
2018-04-18T16:55:09.035Z,3.70
2018-04-18T16:57:37.168Z,3.70
2018-04-18T17:00:05.255Z,3.23
2018-04-18T17:02:33.373Z,3.90
2018-04-18T17:05:01.452Z,3.53
2018-04-18T17:07:29.519Z,3.33
2018-04-18T17:09:57.640Z,3.30
2018-04-18T17:12:25.743Z,3.77
2018-04-18T17:14:54.599Z,4.80
2018-04-18T17:17:22.695Z,3.23
2018-04-18T17:19:50.789Z,3.80
2018-04-18T17:22:18.877Z,4.03
2018-04-18T17:24:46.947Z,3.70
2018-04-18T17:27:15.099Z,3.60
2018-04-18T17:29:43.202Z,3.67
2018-04-18T17:32:11.335Z,3.03
2018-04-18T17:34:39.441Z,2.93
2018-04-18T17:37:08.308Z,3.40
2018-04-18T17:39:36.410Z,3.20
2018-04-18T17:42:04.529Z,7.13
2018-04-18T17:44:32.630Z,2.97
2018-04-18T17:47:00.716Z,3.17
2018-04-18T17:49:28.865Z,3.33
2018-04-18T17:51:57.731Z,2.93
2018-04-18T17:54:25.842Z,2.90
2018-04-18T17:56:54.709Z,2.83
2018-04-18T17:59:22.848Z,2.73
2018-04-18T18:01:51.737Z,2.93
2018-04-18T18:04:20.635Z,2.80
2018-04-18T18:06:49.482Z,2.90
2018-04-18T18:09:17.583Z,2.83
2018-04-18T18:11:45.683Z,2.90
2018-04-18T18:14:13.806Z,3.00
2018-04-18T18:16:42.716Z,3.00
2018-04-18T18:19:11.739Z,2.90
2018-04-18T18:21:39.946Z,2.97
2018-04-18T18:24:08.096Z,2.43
2018-04-18T18:26:36.954Z,3.10
2018-04-18T18:29:05.098Z,3.03
2018-04-18T18:31:33.225Z,3.10
2018-04-18T18:34:01.404Z,2.80
2018-04-18T18:36:29.485Z,2.90
2018-04-18T18:38:57.580Z,2.87
2018-04-18T18:41:25.686Z,3.40
2018-04-18T18:43:53.838Z,3.33
2018-04-18T18:46:21.991Z,3.53
2018-04-18T18:48:50.839Z,4.03
2018-04-18T18:51:19.680Z,4.03
2018-04-18T18:53:48.689Z,3.13
2018-04-18T18:56:16.985Z,2.57
2018-04-18T18:58:45.046Z,3.43
2018-04-18T19:01:13.185Z,3.03
2018-04-18T19:03:41.299Z,3.07
2018-04-18T19:06:09.414Z,3.23
2018-04-18T19:08:37.507Z,2.90
2018-04-18T19:11:06.400Z,3.23
2018-04-18T19:13:35.255Z,3.37
2018-04-18T19:16:03.352Z,3.43
2018-04-18T19:18:31.457Z,3.03
2018-04-18T19:21:01.083Z,4.17
2018-04-18T19:23:29.221Z,6.50
2018-04-18T19:25:57.351Z,3.50
2018-04-18T19:28:27.015Z,4.80
2018-04-18T19:30:55.993Z,4.80
2018-04-18T19:33:24.984Z,3.80
2018-04-18T19:35:53.576Z,4.37
2018-04-18T19:38:21.845Z,5.70
2018-04-18T19:40:49.952Z,6.03
2018-04-18T19:43:18.128Z,5.30
2018-04-18T19:45:46.231Z,6.13
2018-04-18T19:48:15.197Z,6.87
2018-04-18T19:50:43.299Z,4.70
2018-04-18T19:53:11.470Z,6.33
2018-04-18T19:55:39.495Z,6.47
2018-04-18T19:58:08.473Z,5.50
2018-04-18T20:00:36.603Z,5.67
2018-04-18T20:03:04.727Z,6.47
2018-04-18T20:05:32.831Z,21.83
2018-04-18T20:08:00.937Z,7.10
2018-04-18T20:10:29.999Z,9.10
2018-04-18T20:12:58.080Z,6.57
2018-04-18T20:15:26.223Z,6.80
2018-04-18T20:17:55.174Z,8.97
2018-04-18T20:20:23.332Z,7.60
2018-04-18T20:22:52.183Z,10.83
2018-04-18T20:25:20.326Z,10.13
2018-04-18T20:27:48.435Z,6.73
2018-04-18T20:30:16.579Z,7.20
2018-04-18T20:32:45.445Z,6.07
2018-04-18T20:35:13.520Z,5.90
2018-04-18T20:37:41.648Z,7.37
2018-04-18T20:40:10.503Z,6.43
2018-04-18T20:42:38.682Z,5.97
2018-04-18T20:45:07.091Z,6.13
2018-04-18T20:47:35.180Z,6.40
2018-04-18T20:50:03.300Z,6.50
2018-04-18T20:52:32.160Z,6.17
2018-04-18T20:55:00.281Z,6.13
2018-04-18T20:57:28.372Z,6.57
2018-04-18T20:59:57.242Z,5.63
2018-04-18T21:02:25.356Z,6.03
2018-04-18T21:04:54.220Z,5.37
2018-04-18T21:07:22.307Z,5.57
2018-04-18T21:09:50.404Z,5.47
2018-04-18T21:12:18.530Z,6.93
2018-04-18T21:14:46.633Z,5.70
2018-04-18T21:17:14.700Z,10.20
2018-04-18T21:19:42.789Z,6.30
2018-04-18T21:22:10.909Z,5.70
2018-04-18T21:24:38.983Z,5.27
2018-04-18T21:27:07.099Z,6.00
2018-04-18T21:29:35.214Z,5.83
2018-04-18T21:32:04.107Z,6.17
2018-04-18T21:34:32.950Z,5.60
2018-04-18T21:37:01.056Z,6.23
2018-04-18T21:39:29.207Z,6.37
2018-04-18T21:41:57.365Z,6.00
2018-04-18T21:44:26.236Z,6.43
2018-04-18T21:46:54.372Z,5.97
2018-04-18T21:49:22.488Z,6.23
2018-04-18T21:51:50.580Z,6.20
2018-04-18T21:54:18.672Z,5.93
2018-04-18T21:56:46.777Z,6.00
2018-04-18T21:59:15.635Z,5.97
2018-04-18T22:01:43.787Z,7.23
2018-04-18T22:04:12.700Z,7.23
2018-04-18T22:06:40.796Z,6.83
2018-04-18T22:09:08.898Z,7.30
2018-04-18T22:11:37.062Z,7.63
2018-04-18T22:14:05.144Z,6.13
2018-04-18T22:16:33.335Z,6.47
2018-04-18T22:19:01.470Z,7.47
2018-04-18T22:21:29.606Z,6.93
2018-04-18T22:23:57.862Z,7.30
2018-04-18T22:26:26.758Z,7.10
2018-04-18T22:28:54.886Z,7.70
2018-04-18T22:31:23.344Z,7.60
2018-04-18T22:33:51.480Z,7.27
2018-04-18T22:36:19.583Z,7.60
2018-04-18T22:38:47.770Z,7.80
2018-04-18T22:41:16.563Z,8.07
2018-04-18T22:43:44.691Z,7.37
2018-04-18T22:46:12.796Z,7.07
2018-04-18T22:48:40.897Z,6.73
2018-04-18T22:51:09.049Z,7.00
2018-04-18T22:53:37.174Z,7.80
2018-04-18T22:56:05.278Z,7.40
2018-04-18T22:58:33.415Z,7.93
2018-04-18T23:01:02.307Z,8.07
2018-04-18T23:03:30.444Z,8.20
2018-04-18T23:05:58.565Z,7.67
2018-04-18T23:08:26.673Z,8.93
2018-04-18T23:10:54.931Z,9.73
2018-04-18T23:13:23.319Z,9.43
2018-04-18T23:15:51.415Z,8.50
2018-04-18T23:18:19.601Z,9.00
2018-04-18T23:20:47.685Z,9.43
2018-04-18T23:23:15.836Z,9.30
2018-04-18T23:25:43.997Z,8.97
2018-04-18T23:28:12.862Z,9.40
2018-04-18T23:30:40.964Z,9.20
2018-04-18T23:33:09.831Z,10.10
2018-04-18T23:35:37.963Z,10.07
2018-04-18T23:38:06.813Z,10.10
2018-04-18T23:40:34.979Z,10.47
2018-04-18T23:43:03.085Z,9.73
2018-04-18T23:45:31.224Z,11.47
2018-04-18T23:48:00.065Z,10.40
2018-04-18T23:50:28.168Z,10.10
2018-04-18T23:52:56.298Z,10.83
2018-04-18T23:55:25.207Z,10.77
2018-04-18T23:57:53.369Z,11.87
